createdAt,value
2023-04-30T00:00:50.000Z,74
2023-04-30T00:02:06.000Z,74.6
2023-04-30T00:03:22.000Z,74.7
2023-04-30T00:04:38.876Z,74.3
2023-04-30T00:05:37.189Z,74.6
2023-04-30T00:07:11.376Z,74.8
2023-04-30T00:08:27.566Z,74.6
2023-04-30T00:09:42.773Z,74.9
2023-04-30T00:10:40.979Z,74
2023-04-30T00:12:15.000Z,74
2023-04-30T00:13:13.366Z,74
2023-04-30T00:14:29.559Z,74.3
2023-04-30T00:16:03.752Z,74.2
2023-04-30T00:17:19.000Z,74.6
2023-04-30T00:18:36.137Z,74.4
2023-04-30T00:19:52.000Z,74.5
2023-04-30T00:20:50.526Z,74.5
2023-04-30T00:22:24.715Z,74.2
2023-04-30T00:23:40.916Z,74
2023-04-30T00:24:57.000Z,74.3
2023-04-30T00:25:55.300Z,74.3
2023-04-30T00:27:29.000Z,74.6
2023-04-30T00:28:45.807Z,75
2023-04-30T00:30:02.000Z,74.9
2023-04-30T00:31:00.194Z,74.7
2023-04-30T00:32:16.387Z,74.6
2023-04-30T00:33:32.581Z,74.6
2023-04-30T00:35:06.000Z,75.9
2023-04-30T00:36:22.967Z,75.1
2023-04-30T00:37:39.150Z,74.9
2023-04-30T00:38:55.346Z,75.1
2023-04-30T00:39:53.547Z,75.1
2023-04-30T00:41:27.740Z,75.3
2023-04-30T00:42:43.000Z,75.3
2023-04-30T00:44:00.123Z,75.3
2023-04-30T00:45:16.311Z,75.3
2023-04-30T00:46:14.513Z,75.3
2023-04-30T00:48:14.000Z,75.6
2023-04-30T00:49:03.926Z,75.8
2023-04-30T00:50:20.000Z,76.1
2023-04-30T00:51:18.308Z,76.1
2023-04-30T00:52:52.499Z,76.4
2023-04-30T00:54:08.000Z,76.3
2023-04-30T00:55:06.889Z,76.6
2023-04-30T00:56:23.082Z,76.9
2023-04-30T00:57:57.272Z,77.1
2023-04-30T00:59:13.469Z,77.4
2023-04-30T01:00:29.660Z,77.6
2023-04-30T01:01:45.000Z,77.9
2023-04-30T01:03:02.048Z,78.1
2023-04-30T01:04:00.241Z,78.3
2023-04-30T01:05:34.000Z,78.5
2023-04-30T01:06:50.000Z,78.6
2023-04-30T01:08:06.828Z,79.1
2023-04-30T01:09:05.015Z,78.6
2023-04-30T01:10:39.208Z,78.8
2023-04-30T01:11:36.415Z,78.6
2023-04-30T01:13:10.608Z,78.8
2023-04-30T01:14:26.805Z,78.8
2023-04-30T01:15:42.985Z,79
2023-04-30T01:16:41.188Z,79.3
2023-04-30T01:18:15.373Z,79.6
2023-04-30T01:19:31.000Z,79
2023-04-30T01:20:47.000Z,79.1
2023-04-30T01:21:45.961Z,80.1
2023-04-30T01:23:20.159Z,79.7
2023-04-30T01:24:36.344Z,79.8
2023-04-30T01:25:52.528Z,79.8
2023-04-30T01:27:08.725Z,80.1
2023-04-30T01:28:24.000Z,80.4
2023-04-30T01:29:23.120Z,80.3
2023-04-30T01:30:56.330Z,80.5
2023-04-30T01:32:12.000Z,80.6
2023-04-30T01:33:28.718Z,80.6
2023-04-30T01:34:44.909Z,81
2023-04-30T01:36:01.102Z,80.8
2023-04-30T01:36:59.296Z,80.7
2023-04-30T01:38:33.490Z,81
2023-04-30T01:39:49.675Z,81.2
2023-04-30T01:41:05.878Z,81.3
2023-04-30T01:42:22.059Z,81.5
2023-04-30T01:43:38.000Z,81.5
2023-04-30T01:44:54.000Z,81.4
2023-04-30T01:46:10.000Z,81.6
2023-04-30T01:47:08.842Z,81.8
2023-04-30T01:49:09.000Z,81.6
2023-04-30T01:49:40.242Z,81.9
2023-04-30T01:51:14.000Z,81.9
2023-04-30T01:52:12.629Z,81.6
2023-04-30T01:53:46.816Z,81.8
2023-04-30T01:54:45.016Z,82
2023-04-30T01:56:19.210Z,82.1
2023-04-30T01:57:35.000Z,82.1
2023-04-30T01:58:51.000Z,82.2
2023-04-30T01:59:49.788Z,82.2
2023-04-30T02:01:23.000Z,82.4
2023-04-30T02:02:22.174Z,82.5
2023-04-30T02:03:56.358Z,82.7
2023-04-30T02:05:12.562Z,83
2023-04-30T02:06:27.000Z,83.3
2023-04-30T02:07:43.962Z,83.1
2023-04-30T02:09:00.158Z,83.1
2023-04-30T02:10:16.000Z,83.5
2023-04-30T02:11:32.543Z,82.8
2023-04-30T02:12:48.000Z,82.8
2023-04-30T02:14:04.000Z,83
2023-04-30T02:15:03.123Z,83.1
2023-04-30T02:16:19.316Z,83
2023-04-30T02:17:53.509Z,83.2
2023-04-30T02:19:09.707Z,83.2
2023-04-30T02:20:07.896Z,83.3
2023-04-30T02:21:42.000Z,83.4
2023-04-30T02:22:58.283Z,83.5
2023-04-30T02:24:14.481Z,83.5
2023-04-30T02:25:12.669Z,83.6
2023-04-30T02:26:27.879Z,83.6
2023-04-30T02:27:44.072Z,83.8
2023-04-30T02:29:18.260Z,84
2023-04-30T02:30:16.458Z,84.2
2023-04-30T02:31:32.651Z,83.8
2023-04-30T02:32:48.844Z,84.3
2023-04-30T02:34:23.029Z,84.4
2023-04-30T02:35:39.000Z,85.1
2023-04-30T02:36:55.000Z,84.4
2023-04-30T02:37:53.617Z,84.5
2023-04-30T02:39:27.803Z,84.9
2023-04-30T02:40:26.003Z,84.7
2023-04-30T02:42:00.196Z,85.1
2023-04-30T02:43:16.390Z,85.2
2023-04-30T02:44:32.000Z,85.2
2023-04-30T02:45:48.764Z,85.4
2023-04-30T02:47:03.000Z,85.7
2023-04-30T02:48:20.178Z,85.8
2023-04-30T02:49:36.359Z,85.8
2023-04-30T02:50:52.565Z,85.5
2023-04-30T02:52:08.000Z,85.8
2023-04-30T02:53:24.943Z,85.6
2023-04-30T02:54:41.000Z,85.6
2023-04-30T02:55:39.338Z,85.7
2023-04-30T02:57:13.528Z,85.5
2023-04-30T02:58:11.724Z,86.4
2023-04-30T02:59:45.914Z,85.7
2023-04-30T03:01:02.000Z,85.9
2023-04-30T03:02:18.000Z,85.9
2023-04-30T03:03:16.496Z,86.3
2023-04-30T03:04:49.713Z,86.9
2023-04-30T03:06:05.894Z,86.5
2023-04-30T03:07:22.000Z,86.5
2023-04-30T03:08:38.283Z,86.4
2023-04-30T03:09:54.000Z,86.5
2023-04-30T03:11:10.000Z,86.8
2023-04-30T03:12:26.000Z,87
2023-04-30T03:13:43.000Z,87.2
2023-04-30T03:14:59.000Z,87.2
2023-04-30T03:16:15.443Z,87.2
2023-04-30T03:17:31.643Z,87.2
2023-04-30T03:18:29.831Z,87.3
2023-04-30T03:20:04.021Z,87.5
2023-04-30T03:21:20.209Z,87.5
2023-04-30T03:22:35.000Z,87.8
2023-04-30T03:23:33.619Z,87.7
2023-04-30T03:25:07.801Z,88.2
2023-04-30T03:26:24.000Z,87.9
2023-04-30T03:27:40.000Z,87.9
2023-04-30T03:28:56.382Z,88.1
2023-04-30T03:30:12.585Z,88.2
2023-04-30T03:31:28.000Z,88.1
2023-04-30T03:32:44.963Z,88.1
2023-04-30T03:34:01.167Z,88.3
2023-04-30T03:34:59.357Z,88.5
2023-04-30T03:36:33.551Z,88.5
2023-04-30T03:37:49.000Z,88.7
2023-04-30T03:39:05.000Z,88.6
2023-04-30T03:40:48.000Z,88.7
2023-04-30T03:41:38.314Z,88.6
2023-04-30T03:43:21.000Z,88.9
2023-04-30T03:43:52.830Z,89
2023-04-30T03:45:27.020Z,88.9
2023-04-30T03:46:43.206Z,89
2023-04-30T03:47:59.402Z,89.2
2023-04-30T03:49:15.591Z,89.5
2023-04-30T03:50:13.795Z,89.5
2023-04-30T03:51:47.000Z,89.3
2023-04-30T03:53:04.000Z,89.3
2023-04-30T03:54:02.374Z,89.6
2023-04-30T03:55:36.557Z,89.6
2023-04-30T03:56:52.759Z,89.6
2023-04-30T03:58:08.942Z,89.7
2023-04-30T03:59:24.156Z,89.8
2023-04-30T04:00:40.000Z,89.9
2023-04-30T04:01:56.540Z,90.1
2023-04-30T04:03:12.741Z,89.7
2023-04-30T04:04:28.000Z,89.8
2023-04-30T04:05:27.127Z,89.8
2023-04-30T04:07:01.312Z,89.9
2023-04-30T04:08:17.000Z,89.9
2023-04-30T04:09:33.705Z,89.9
2023-04-30T04:10:49.890Z,90
2023-04-30T04:12:06.000Z,89.9
2023-04-30T04:13:04.286Z,89.8
2023-04-30T04:14:38.481Z,90
2023-04-30T04:15:54.672Z,89.9
2023-04-30T04:17:10.000Z,90.2
2023-04-30T04:18:27.047Z,89.8
2023-04-30T04:19:43.247Z,90
2023-04-30T04:20:40.460Z,90.3
2023-04-30T04:21:56.654Z,89.9
2023-04-30T04:23:30.846Z,89.7
2023-04-30T04:24:47.046Z,89.8
2023-04-30T04:25:45.232Z,90
2023-04-30T04:27:01.425Z,89.6
2023-04-30T04:28:17.618Z,89.9
2023-04-30T04:29:51.000Z,89.7
2023-04-30T04:31:07.996Z,89.6
2023-04-30T04:32:24.188Z,89.3
2023-04-30T04:33:40.397Z,89.8
2023-04-30T04:34:38.583Z,89.3
2023-04-30T04:36:12.000Z,89.3
2023-04-30T04:37:28.000Z,89.6
2023-04-30T04:38:44.000Z,89
2023-04-30T04:40:00.374Z,89
2023-04-30T04:40:58.564Z,89
2023-04-30T04:42:32.000Z,89
2023-04-30T04:43:48.946Z,89
2023-04-30T04:45:05.000Z,89
2023-04-30T04:46:21.000Z,89
2023-04-30T04:47:37.000Z,89.3
2023-04-30T04:48:35.722Z,89.3
2023-04-30T04:50:09.000Z,89.3
2023-04-30T04:51:26.108Z,89.5
2023-04-30T04:52:42.296Z,89.1
2023-04-30T04:53:58.000Z,89.3
2023-04-30T04:55:14.000Z,88.9
2023-04-30T04:56:30.876Z,89.1
2023-04-30T04:57:46.000Z,88.9
2023-04-30T04:59:02.277Z,88.9
2023-04-30T05:00:00.477Z,89
2023-04-30T05:01:34.000Z,88.6
2023-04-30T05:02:50.865Z,88.4
2023-04-30T05:04:07.047Z,88.9
2023-04-30T05:05:48.000Z,88.5
2023-04-30T05:06:20.464Z,88.5
2023-04-30T05:07:54.000Z,88.1
2023-04-30T05:09:10.843Z,88.4
2023-04-30T05:10:09.043Z,88.4
2023-04-30T05:11:43.228Z,88.3
2023-04-30T05:12:59.420Z,88.2
2023-04-30T05:14:15.629Z,88.2
2023-04-30T05:15:13.815Z,88.3
2023-04-30T05:16:48.000Z,88.3
2023-04-30T05:18:04.195Z,88.2
2023-04-30T05:19:20.395Z,88.4
2023-04-30T05:20:36.587Z,88
2023-04-30T05:21:52.000Z,87.9
2023-04-30T05:22:50.973Z,87.4
2023-04-30T05:24:24.000Z,87.4
2023-04-30T05:25:22.375Z,87.3
2023-04-30T05:26:56.000Z,87.1
2023-04-30T05:28:12.756Z,87.4
2023-04-30T05:29:28.946Z,87.6
2023-04-30T05:30:45.143Z,87.3
2023-04-30T05:32:01.340Z,87.1
2023-04-30T05:33:17.000Z,87.6
2023-04-30T05:34:33.735Z,87.4
2023-04-30T05:35:31.920Z,86.9
2023-04-30T05:37:06.103Z,87.1
2023-04-30T05:38:04.306Z,86.8
2023-04-30T05:39:38.000Z,86.7
2023-04-30T05:40:54.000Z,86.7
2023-04-30T05:42:09.905Z,86.3
2023-04-30T05:43:26.089Z,86.2
2023-04-30T05:44:24.287Z,86.4
2023-04-30T05:45:58.000Z,86
2023-04-30T05:47:14.000Z,86.7
2023-04-30T05:48:12.867Z,85.8
2023-04-30T05:49:47.065Z,85.6
2023-04-30T05:50:45.254Z,85.7
2023-04-30T05:52:01.447Z,85.8
2023-04-30T05:53:35.639Z,85.7
2023-04-30T05:54:51.000Z,85.6
2023-04-30T05:55:50.026Z,85.8
2023-04-30T05:57:24.219Z,86
2023-04-30T05:58:39.428Z,85.8
2023-04-30T06:00:22.000Z,85.1
2023-04-30T06:01:11.818Z,84.5
2023-04-30T06:02:28.000Z,84.8
2023-04-30T06:03:26.201Z,85.3
2023-04-30T06:05:00.386Z,85.2
2023-04-30T06:06:16.588Z,84.9
2023-04-30T06:07:32.786Z,84.1
2023-04-30T06:08:30.973Z,83.8
2023-04-30T06:10:05.000Z,83.8
2023-04-30T06:11:21.000Z,84
2023-04-30T06:12:37.556Z,84.4
2023-04-30T06:13:53.755Z,84.8
2023-04-30T06:15:08.000Z,84.4
2023-04-30T06:16:25.142Z,83.9
2023-04-30T06:17:41.341Z,83.5
2023-04-30T06:18:57.538Z,83
2023-04-30T06:20:13.720Z,82.4
2023-04-30T06:21:29.910Z,82.6
2023-04-30T06:22:46.105Z,83.2
2023-04-30T06:24:02.308Z,82.9
2023-04-30T06:25:18.510Z,82.9
2023-04-30T06:26:34.685Z,83
2023-04-30T06:27:50.000Z,83
2023-04-30T06:29:07.070Z,82.7
2023-04-30T06:30:23.000Z,82.2
2023-04-30T06:31:39.469Z,80.8
2023-04-30T06:32:55.774Z,81.1
2023-04-30T06:33:53.975Z,81.3
2023-04-30T06:35:28.000Z,81.1
2023-04-30T06:36:44.000Z,81.5
2023-04-30T06:37:42.555Z,80.6
2023-04-30T06:38:58.748Z,79.8
2023-04-30T06:40:32.000Z,79.5
2023-04-30T06:41:49.126Z,79.3
2023-04-30T06:43:05.325Z,78.6
2023-04-30T06:44:21.513Z,78.3
2023-04-30T06:45:37.000Z,77.9
2023-04-30T06:46:53.902Z,78.4
2023-04-30T06:48:10.000Z,78
2023-04-30T06:49:26.000Z,78.4
2023-04-30T06:50:42.478Z,78.7
2023-04-30T06:51:39.696Z,78.6
2023-04-30T06:53:13.881Z,78.2
2023-04-30T06:54:12.083Z,77.7
2023-04-30T06:55:46.277Z,77.1
2023-04-30T06:56:44.470Z,76.7
2023-04-30T06:58:18.000Z,77.3
2023-04-30T06:59:16.857Z,78.1
2023-04-30T07:00:51.000Z,77.7
2023-04-30T07:02:07.000Z,77.2
2023-04-30T07:03:23.000Z,77.7
2023-04-30T07:04:39.631Z,77.7
2023-04-30T07:06:22.000Z,78.2
2023-04-30T07:06:54.017Z,78.3
2023-04-30T07:08:27.228Z,77.9
2023-04-30T07:10:10.000Z,76.8
2023-04-30T07:10:59.000Z,76.8
2023-04-30T07:11:57.806Z,77.2
2023-04-30T07:13:32.002Z,76.9
2023-04-30T07:14:48.000Z,77.5
2023-04-30T07:16:04.380Z,77.2
2023-04-30T07:17:20.573Z,76.2
2023-04-30T07:18:36.000Z,76.2
2023-04-30T07:19:34.965Z,75.2
2023-04-30T07:21:35.000Z,76
2023-04-30T07:22:51.000Z,75.5
2023-04-30T07:23:41.000Z,75.7
2023-04-30T07:24:39.738Z,75.3
2023-04-30T07:26:13.000Z,76.1
2023-04-30T07:27:30.000Z,75.7
2023-04-30T07:28:46.322Z,74.4
2023-04-30T07:30:02.515Z,74.5
2023-04-30T07:31:17.722Z,75.3
2023-04-30T07:32:15.913Z,73.1
2023-04-30T07:33:50.000Z,73.5
2023-04-30T07:34:48.300Z,73
2023-04-30T07:36:22.500Z,73.4
2023-04-30T07:37:20.686Z,73.9
2023-04-30T07:38:36.880Z,74.7
2023-04-30T07:40:11.000Z,75.3
2023-04-30T07:41:27.000Z,74.2
2023-04-30T07:42:25.461Z,73.8
2023-04-30T07:43:41.654Z,73
2023-04-30T07:45:15.842Z,73.7
2023-04-30T07:46:32.000Z,74.7
2023-04-30T07:47:30.236Z,74.6
2023-04-30T07:49:03.000Z,72.7
2023-04-30T07:50:01.642Z,70.3
2023-04-30T07:51:35.833Z,70.4
2023-04-30T07:52:52.000Z,70.6
2023-04-30T07:54:08.232Z,69.7
2023-04-30T07:55:06.421Z,69.3
2023-04-30T07:56:40.000Z,69.8
2023-04-30T07:57:38.810Z,70.2
2023-04-30T07:59:13.010Z,69.9
2023-04-30T08:00:11.201Z,69.2
2023-04-30T08:01:27.397Z,69.3
2023-04-30T08:02:43.591Z,68.1
2023-04-30T08:04:17.000Z,68.4
2023-04-30T08:05:34.000Z,67.8
2023-04-30T08:06:50.171Z,68.2
2023-04-30T08:08:06.361Z,68.5
2023-04-30T08:09:22.690Z,68.7
2023-04-30T08:10:38.875Z,68.8
2023-04-30T08:11:55.078Z,68.9
2023-04-30T08:12:53.273Z,69
2023-04-30T08:14:27.000Z,68.2
2023-04-30T08:15:43.000Z,68.5
2023-04-30T08:17:26.000Z,68.7
2023-04-30T08:18:16.000Z,68.9
2023-04-30T08:19:32.251Z,69
2023-04-30T08:20:30.444Z,69.4
2023-04-30T08:22:04.000Z,68.7
2023-04-30T08:23:02.835Z,69.1
2023-04-30T08:24:19.030Z,69.1
2023-04-30T08:25:35.225Z,68.5
2023-04-30T08:27:08.000Z,67.3
2023-04-30T08:28:06.630Z,67.2
2023-04-30T08:29:40.000Z,67.5
2023-04-30T08:30:57.000Z,66.8
2023-04-30T08:32:13.000Z,66.9
2023-04-30T08:33:29.412Z,66.9
2023-04-30T08:34:45.000Z,67.6
2023-04-30T08:35:43.800Z,67.3
2023-04-30T08:37:18.000Z,67.4
2023-04-30T08:38:34.191Z,67.5
2023-04-30T08:39:50.000Z,67.2
2023-04-30T08:41:33.000Z,65.2
2023-04-30T08:42:22.000Z,65.9
2023-04-30T08:43:38.000Z,65
2023-04-30T08:45:21.000Z,65.6
2023-04-30T08:46:37.000Z,65.7
2023-04-30T08:47:27.555Z,64.8
2023-04-30T08:48:25.750Z,65.3
2023-04-30T08:50:00.000Z,64.4
2023-04-30T08:51:16.245Z,65.3
2023-04-30T08:52:32.455Z,64.3
2023-04-30T08:53:30.651Z,63.3
2023-04-30T08:54:46.846Z,63
2023-04-30T08:56:21.041Z,63.5
2023-04-30T08:57:37.000Z,63.8
2023-04-30T08:58:53.419Z,63.8
2023-04-30T09:00:36.000Z,62.7
2023-04-30T09:01:25.000Z,62.5
2023-04-30T09:02:42.000Z,60.9
2023-04-30T09:03:58.200Z,60.6
2023-04-30T09:05:14.000Z,60.1
2023-04-30T09:06:12.601Z,59.4
2023-04-30T09:07:46.000Z,59.7
2023-04-30T09:09:03.000Z,60.3
2023-04-30T09:10:45.000Z,59.5
2023-04-30T09:11:35.370Z,59.9
2023-04-30T09:12:50.000Z,60.2
2023-04-30T09:14:06.786Z,59.3
2023-04-30T09:15:22.965Z,56.9
2023-04-30T09:16:39.163Z,55
2023-04-30T09:17:55.000Z,55
2023-04-30T09:18:53.565Z,56
2023-04-30T09:20:26.774Z,56.1
2023-04-30T09:21:42.000Z,57.8
2023-04-30T09:23:25.000Z,56.6
2023-04-30T09:23:57.366Z,56.3
2023-04-30T09:25:58.000Z,56.6
2023-04-30T09:26:29.756Z,57
2023-04-30T09:28:03.000Z,56.4
2023-04-30T09:29:02.146Z,53.4
2023-04-30T09:30:36.342Z,53.4
2023-04-30T09:31:34.536Z,54.6
2023-04-30T09:33:08.735Z,54.9
2023-04-30T09:34:24.926Z,55.5
2023-04-30T09:35:41.121Z,56
2023-04-30T09:36:39.316Z,55.3
2023-04-30T09:38:13.000Z,55.6
2023-04-30T09:39:11.828Z,55.5
2023-04-30T09:40:46.000Z,55.4
2023-04-30T09:41:44.217Z,54.7
2023-04-30T09:43:18.000Z,54.4
2023-04-30T09:44:16.608Z,53
2023-04-30T09:45:50.803Z,53.2
2023-04-30T09:47:07.000Z,52.7
2023-04-30T09:48:23.192Z,51
2023-04-30T09:49:21.389Z,50.1
2023-04-30T09:50:55.000Z,50.3
2023-04-30T09:52:11.774Z,49.3
2023-04-30T09:53:27.974Z,50.3
2023-04-30T09:54:44.171Z,49.2
2023-04-30T09:56:25.000Z,49.5
2023-04-30T09:56:57.576Z,49.6
2023-04-30T09:58:31.772Z,50.5
2023-04-30T09:59:47.000Z,50.1
2023-04-30T10:01:04.156Z,50.7
2023-04-30T10:02:02.358Z,51.5
2023-04-30T10:04:03.000Z,50.2
2023-04-30T10:04:52.748Z,51.5
2023-04-30T10:06:08.944Z,51.9
2023-04-30T10:07:25.135Z,51.4
2023-04-30T10:08:41.000Z,51.9
2023-04-30T10:09:39.529Z,50.4
2023-04-30T10:11:13.713Z,49.4
2023-04-30T10:12:28.931Z,50
2023-04-30T10:13:45.000Z,51.5
2023-04-30T10:14:43.322Z,50.9
2023-04-30T10:16:17.000Z,51.4
2023-04-30T10:17:33.698Z,52.1
2023-04-30T10:18:49.907Z,51.5
2023-04-30T10:19:48.101Z,50.8
2023-04-30T10:21:22.000Z,50.7
2023-04-30T10:22:20.491Z,51.2
2023-04-30T10:23:54.000Z,50.4
2023-04-30T10:25:10.881Z,50.2
2023-04-30T10:26:09.076Z,50.8
2023-04-30T10:27:25.271Z,50.1
2023-04-30T10:28:58.000Z,51.8
2023-04-30T10:29:56.676Z,49.9
2023-04-30T10:31:30.874Z,50.7
2023-04-30T10:32:47.000Z,50.4
2023-04-30T10:34:03.261Z,50
2023-04-30T10:35:01.456Z,51.6
2023-04-30T10:36:35.651Z,54.5
2023-04-30T10:37:51.846Z,51.8
2023-04-30T10:39:08.027Z,51.4
2023-04-30T10:40:06.236Z,50.8
2023-04-30T10:41:40.000Z,47.3
2023-04-30T10:42:38.626Z,49
2023-04-30T10:44:12.000Z,49.5
2023-04-30T10:45:11.016Z,49.8
2023-04-30T10:46:26.227Z,50.1
2023-04-30T10:47:42.421Z,50.1
2023-04-30T10:48:58.616Z,51.8
2023-04-30T10:50:32.000Z,50
2023-04-30T10:51:49.000Z,50.6
2023-04-30T10:53:05.200Z,49.6
2023-04-30T10:54:21.388Z,50
2023-04-30T10:55:37.588Z,50
2023-04-30T10:56:53.000Z,49.9
2023-04-30T10:58:09.970Z,49.4
2023-04-30T10:59:26.000Z,48.4
2023-04-30T11:00:24.371Z,49.1
2023-04-30T11:01:40.566Z,49.8
2023-04-30T11:03:14.761Z,48.1
2023-04-30T11:04:57.000Z,47.3
2023-04-30T11:05:47.147Z,47.9
2023-04-30T11:07:03.000Z,48.2
2023-04-30T11:08:01.541Z,49.7
2023-04-30T11:09:35.845Z,49.8
2023-04-30T11:10:34.053Z,50.3
2023-04-30T11:12:34.000Z,51.5
2023-04-30T11:13:24.426Z,46.9
2023-04-30T11:14:40.000Z,47
2023-04-30T11:15:56.000Z,46.7
2023-04-30T11:17:39.000Z,46.9
2023-04-30T11:18:11.223Z,46.1
2023-04-30T11:19:45.411Z,46.7
2023-04-30T11:20:43.613Z,47.9
2023-04-30T11:22:17.800Z,47.4
2023-04-30T11:23:33.990Z,47.5
2023-04-30T11:24:50.187Z,47.6
2023-04-30T11:25:48.394Z,47.7
2023-04-30T11:27:22.585Z,48.6
2023-04-30T11:28:37.000Z,47.7
2023-04-30T11:29:54.000Z,47.4
2023-04-30T11:30:52.191Z,46.7
2023-04-30T11:32:08.387Z,45.3
2023-04-30T11:33:42.000Z,45.2
2023-04-30T11:34:58.766Z,45.4
2023-04-30T11:35:56.972Z,46.2
2023-04-30T11:37:31.000Z,47.5
2023-04-30T11:38:29.363Z,48
2023-04-30T11:40:03.555Z,46.1
2023-04-30T11:41:19.000Z,46.8
2023-04-30T11:42:35.943Z,47.3
2023-04-30T11:43:34.144Z,48.4
2023-04-30T11:45:07.355Z,47.5
2023-04-30T11:46:05.551Z,47.4
2023-04-30T11:47:39.745Z,47.4
2023-04-30T11:48:55.926Z,47.8
2023-04-30T11:49:54.137Z,47.2
2023-04-30T11:51:10.332Z,46.3
2023-04-30T11:52:44.000Z,46.2
2023-04-30T11:54:00.000Z,46.4
2023-04-30T11:54:58.918Z,45.9
2023-04-30T11:56:15.113Z,45.3
2023-04-30T11:57:49.293Z,45.1
2023-04-30T11:59:05.492Z,44.9
2023-04-30T12:00:48.000Z,42.3
2023-04-30T12:01:19.895Z,42.8
2023-04-30T12:02:53.000Z,43.9
2023-04-30T12:03:51.301Z,43.3
2023-04-30T12:05:25.000Z,43.3
2023-04-30T12:06:41.691Z,44.4
2023-04-30T12:07:57.000Z,43.4
2023-04-30T12:09:14.000Z,42.7
2023-04-30T12:10:30.276Z,43.2
2023-04-30T12:11:28.473Z,43.9
2023-04-30T12:13:29.000Z,44.8
2023-04-30T12:14:45.000Z,45.1
2023-04-30T12:15:35.000Z,44.7
2023-04-30T12:16:33.254Z,44.5
2023-04-30T12:18:07.000Z,44.9
2023-04-30T12:19:23.000Z,45.1
2023-04-30T12:20:39.841Z,45.2
2023-04-30T12:21:38.036Z,43.7
2023-04-30T12:23:11.000Z,44.2
2023-04-30T12:24:09.443Z,43.3
2023-04-30T12:26:10.000Z,43.2
2023-04-30T12:26:59.000Z,43.6
2023-04-30T12:28:16.037Z,43.1
2023-04-30T12:29:14.224Z,43.2
2023-04-30T12:30:48.000Z,42.5
2023-04-30T12:32:04.000Z,43.1
2023-04-30T12:33:02.811Z,39.6
2023-04-30T12:34:19.006Z,41
2023-04-30T12:35:53.000Z,38.1
2023-04-30T12:37:09.000Z,39.2
2023-04-30T12:38:25.000Z,39.4
2023-04-30T12:39:23.787Z,41.6
2023-04-30T12:40:57.004Z,37.7
2023-04-30T12:42:39.000Z,38.9
2023-04-30T12:43:11.392Z,42
2023-04-30T12:44:45.000Z,42.7
2023-04-30T12:46:01.000Z,43.7
2023-04-30T12:46:59.977Z,43.8
2023-04-30T12:48:34.000Z,43.4
2023-04-30T12:49:32.368Z,43.3
2023-04-30T12:51:06.572Z,43.3
2023-04-30T12:52:22.774Z,44.5
2023-04-30T12:53:38.000Z,44.4
2023-04-30T12:54:37.149Z,45
2023-04-30T12:56:11.345Z,45.3
2023-04-30T12:57:27.539Z,44.8
2023-04-30T12:58:25.735Z,45.5
2023-04-30T12:59:41.930Z,46.9
2023-04-30T13:01:15.000Z,45.3
2023-04-30T13:02:31.348Z,44.4
2023-04-30T13:03:47.529Z,45
2023-04-30T13:05:03.000Z,45.9
2023-04-30T13:06:19.929Z,45.1
2023-04-30T13:07:36.134Z,44.3
2023-04-30T13:08:52.000Z,44.8
2023-04-30T13:10:08.510Z,44.6
2023-04-30T13:11:24.705Z,45.3
2023-04-30T13:12:40.902Z,46.2
2023-04-30T13:13:39.096Z,45.3
2023-04-30T13:14:55.291Z,45.5
2023-04-30T13:16:29.000Z,45.6
2023-04-30T13:17:45.000Z,46
2023-04-30T13:19:00.907Z,46.3
2023-04-30T13:19:59.089Z,46.4
2023-04-30T13:21:33.298Z,46.5
2023-04-30T13:22:49.000Z,47.9
2023-04-30T13:24:05.674Z,47.1
2023-04-30T13:25:03.868Z,46.7
2023-04-30T13:26:38.074Z,44.7
2023-04-30T13:27:54.258Z,44
2023-04-30T13:29:10.000Z,44.4
2023-04-30T13:30:08.649Z,43.4
2023-04-30T13:31:42.845Z,43.4
2023-04-30T13:32:41.040Z,42.9
2023-04-30T13:34:15.238Z,43.9
2023-04-30T13:35:31.430Z,43.1
2023-04-30T13:36:47.627Z,43.2
2023-04-30T13:37:44.843Z,43
2023-04-30T13:39:19.042Z,42.7
2023-04-30T13:40:17.234Z,41.9
2023-04-30T13:41:51.000Z,42.1
2023-04-30T13:43:07.624Z,42.5
2023-04-30T13:44:23.825Z,42.4
2023-04-30T13:45:22.014Z,42.4
2023-04-30T13:46:56.000Z,43.7
2023-04-30T13:48:12.000Z,43.2
2023-04-30T13:49:28.613Z,43.3
2023-04-30T13:50:26.793Z,44.5
2023-04-30T13:52:00.000Z,43.6
2023-04-30T13:52:59.182Z,44.8
2023-04-30T13:54:32.394Z,43.5
2023-04-30T13:55:30.588Z,43
2023-04-30T13:56:46.783Z,43.1
2023-04-30T13:58:20.985Z,44.4
2023-04-30T13:59:19.172Z,43.2
2023-04-30T14:00:53.000Z,43.5
2023-04-30T14:02:09.000Z,43.1
2023-04-30T14:03:25.000Z,43.1
2023-04-30T14:04:41.000Z,44.6
2023-04-30T14:05:58.151Z,44.3
2023-04-30T14:07:14.339Z,43.8
2023-04-30T14:08:12.536Z,44.8
2023-04-30T14:09:46.000Z,44.5
2023-04-30T14:10:44.926Z,43.2
2023-04-30T14:12:18.142Z,43.1
2023-04-30T14:13:34.332Z,44.1
2023-04-30T14:14:50.000Z,41.3
2023-04-30T14:16:06.716Z,42.6
2023-04-30T14:17:22.000Z,42.5
2023-04-30T14:18:21.112Z,40.6
2023-04-30T14:19:55.302Z,41
2023-04-30T14:21:38.000Z,41.3
2023-04-30T14:22:27.704Z,42
2023-04-30T14:23:25.892Z,42.4
2023-04-30T14:25:00.000Z,42.2
2023-04-30T14:26:16.000Z,42.5
2023-04-30T14:27:32.480Z,42.1
2023-04-30T14:28:48.668Z,41.9
2023-04-30T14:29:45.884Z,42.8
2023-04-30T14:31:02.078Z,43.3
2023-04-30T14:32:36.000Z,42
2023-04-30T14:33:34.468Z,43.3
2023-04-30T14:35:08.666Z,42.5
2023-04-30T14:36:06.857Z,41.5
2023-04-30T14:37:41.060Z,41.6
2023-04-30T14:38:57.242Z,41.7
2023-04-30T14:40:13.443Z,40.5
2023-04-30T14:41:11.638Z,41
2023-04-30T14:42:45.832Z,40
2023-04-30T14:43:44.028Z,40
2023-04-30T14:45:18.221Z,39.7
2023-04-30T14:46:34.419Z,39
2023-04-30T14:47:50.614Z,39
2023-04-30T14:48:48.808Z,38.9
2023-04-30T14:50:23.017Z,40.5
2023-04-30T14:51:39.000Z,39.5
2023-04-30T14:52:55.389Z,40.4
2023-04-30T14:53:53.587Z,40.5
2023-04-30T14:55:26.000Z,39.7
2023-04-30T14:56:24.993Z,39.2
2023-04-30T14:57:59.198Z,39.5
2023-04-30T14:59:15.379Z,39.6
2023-04-30T15:00:31.000Z,39.6
2023-04-30T15:02:14.000Z,38.9
2023-04-30T15:03:03.000Z,39.9
2023-04-30T15:04:20.161Z,38
2023-04-30T15:05:36.000Z,37.8
2023-04-30T15:06:52.551Z,37.9
2023-04-30T15:08:08.000Z,37.6
2023-04-30T15:09:24.949Z,38.3
2023-04-30T15:10:41.000Z,37.1
2023-04-30T15:11:57.330Z,37.7
2023-04-30T15:13:12.000Z,37.5
2023-04-30T15:14:28.000Z,37.5
2023-04-30T15:15:44.940Z,38
2023-04-30T15:17:01.000Z,38.6
2023-04-30T15:18:17.000Z,38.7
2023-04-30T15:20:00.000Z,40.4
2023-04-30T15:20:49.713Z,40
2023-04-30T15:21:47.910Z,40.7
2023-04-30T15:23:48.000Z,39.1
2023-04-30T15:24:20.299Z,39.4
2023-04-30T15:25:54.000Z,39.7
2023-04-30T15:27:10.688Z,39.7
2023-04-30T15:28:26.000Z,40
2023-04-30T15:29:43.000Z,38.6
2023-04-30T15:30:59.278Z,38.2
2023-04-30T15:31:56.485Z,37.4
2023-04-30T15:33:30.000Z,36.7
2023-04-30T15:34:28.875Z,36.5
2023-04-30T15:35:45.070Z,36.6
2023-04-30T15:37:19.000Z,37.2
2023-04-30T15:38:35.466Z,37.5
2023-04-30T15:39:51.654Z,37.4
2023-04-30T15:41:07.000Z,37
2023-04-30T15:42:24.047Z,37.1
2023-04-30T15:43:40.240Z,36.8
2023-04-30T15:44:38.437Z,37.1
2023-04-30T15:46:12.633Z,38.2
2023-04-30T15:47:10.828Z,38.6
2023-04-30T15:48:45.000Z,38.7
2023-04-30T15:50:01.219Z,38.6
2023-04-30T15:51:17.414Z,38.5
2023-04-30T15:52:32.000Z,38.7
2023-04-30T15:53:30.822Z,38.2
2023-04-30T15:55:05.017Z,37.7
2023-04-30T15:56:21.000Z,38.7
2023-04-30T15:57:37.403Z,38
2023-04-30T15:58:53.615Z,37.4
2023-04-30T16:00:09.794Z,37
2023-04-30T16:01:26.000Z,37.2
2023-04-30T16:02:42.187Z,36.5
2023-04-30T16:03:58.000Z,36.5
2023-04-30T16:05:14.000Z,36.1
2023-04-30T16:06:30.769Z,36.7
2023-04-30T16:07:46.000Z,37.4
2023-04-30T16:08:45.163Z,37.4
2023-04-30T16:10:19.000Z,37.5
2023-04-30T16:11:35.000Z,37
2023-04-30T16:12:33.748Z,37.1
2023-04-30T16:14:06.000Z,37.6
2023-04-30T16:15:23.161Z,36.6
2023-04-30T16:16:39.000Z,35.7
2023-04-30T16:17:37.545Z,35.3
2023-04-30T16:19:11.000Z,35.3
2023-04-30T16:20:27.000Z,34.9
2023-04-30T16:22:10.000Z,36.1
2023-04-30T16:23:00.000Z,35.6
2023-04-30T16:24:16.518Z,34.6
2023-04-30T16:25:32.719Z,34.8
2023-04-30T16:26:48.913Z,35.6
2023-04-30T16:28:05.000Z,32
2023-04-30T16:29:21.301Z,31.6
2023-04-30T16:30:19.497Z,30.9
2023-04-30T16:31:52.000Z,30.9
2023-04-30T16:33:08.904Z,31.4
2023-04-30T16:34:25.000Z,31.7
2023-04-30T16:35:23.294Z,32.5
2023-04-30T16:36:57.494Z,32.4
2023-04-30T16:37:55.684Z,32.7
2023-04-30T16:39:29.884Z,32.3
2023-04-30T16:40:46.084Z,32.6
2023-04-30T16:42:02.000Z,32.3
2023-04-30T16:43:00.465Z,31.3
2023-04-30T16:44:34.657Z,32.3
2023-04-30T16:45:50.000Z,32.1
2023-04-30T16:47:07.056Z,32.1
2023-04-30T16:48:04.263Z,32.9
2023-04-30T16:49:38.000Z,33.5
2023-04-30T16:50:54.658Z,33.3
2023-04-30T16:52:10.843Z,34.1
2023-04-30T16:53:27.043Z,34.4
2023-04-30T16:54:25.242Z,36.4
2023-04-30T16:55:41.436Z,34.2
2023-04-30T16:57:15.000Z,33.8
2023-04-30T16:58:31.826Z,33.6
2023-04-30T16:59:48.027Z,33.8
2023-04-30T17:01:04.216Z,34.2